Time;durP1;ratioP1;P1;durP2;ratioP2;P2;SDS_P1;SDS_P2;PMS_P1;PMS_P2;Temp;Humidity;BMP_temperature;BMP_pressure;BME280_temperature;BME280_humidity;BME280_pressure;Samples;Min_cycle;Max_cycle;Signal;HPM_P1;HPM_P2
2022/01/20 00:00:13;;;;;;;39.55;10.02;;;5.10;90.20;;;;;;5053069;28;20723;-74
2022/01/20 00:02:39;;;;;;;34.17;8.32;;;5.10;89.50;;;;;;5053324;28;20393;-74
2022/01/20 00:26:16;;;;;;;49.20;9.25;;;4.50;99.90;;;;;;5060291;28;20393;-72
2022/01/20 00:28:49;;;;;;;54.20;8.77;;;4.50;99.90;;;;;;5062907;28;20447;-74
2022/01/20 00:34:31;;;;;;;46.63;8.25;;;4.50;99.90;;;;;;5009526;28;20534;-74
2022/01/20 00:37:16;;;;;;;48.33;7.57;;;4.50;98.90;;;;;;4997876;28;20839;-73
2022/01/20 00:39:43;;;;;;;41.45;8.65;;;4.40;99.10;;;;;;5034487;28;20398;-75
2022/01/20 00:42:08;;;;;;;47.60;8.40;;;4.30;99.90;;;;;;5055555;28;20428;-75
2022/01/20 00:44:34;;;;;;;41.57;8.17;;;4.30;99.90;;;;;;5054583;28;20710;-75
2022/01/20 00:47:00;;;;;;;45.85;7.88;;;4.30;99.90;;;;;;5052153;28;20754;-76
2022/01/20 00:49:26;;;;;;;43.42;7.50;;;4.30;99.90;;;;;;5051314;28;20887;-75
2022/01/20 00:51:52;;;;;;;47.53;7.80;;;4.50;99.90;;;;;;5052061;28;20456;-74
2022/01/20 00:54:17;;;;;;;42.55;7.50;;;4.50;97.00;;;;;;5052095;28;20953;-75
2022/01/20 00:56:43;;;;;;;34.08;7.47;;;4.60;96.80;;;;;;5052380;28;20425;-74
2022/01/20 00:59:08;;;;;;;37.47;7.97;;;4.60;98.20;;;;;;5052685;28;20392;-74
2022/01/20 01:01:34;;;;;;;48.80;8.03;;;4.80;94.50;;;;;;5053490;28;20955;-75
2022/01/20 01:04:00;;;;;;;37.63;7.40;;;4.80;90.90;;;;;;5055355;28;20400;-74
2022/01/20 01:06:58;;;;;;;41.00;8.38;;;4.80;91.30;;;;;;5059957;28;20746;-73
2022/01/20 01:09:23;;;;;;;44.50;7.40;;;4.80;90.70;;;;;;5063207;28;20413;-74
2022/01/20 01:11:51;;;;;;;51.57;7.73;;;4.70;91.10;;;;;;5061584;28;20409;-73
2022/01/20 01:14:19;;;;;;;38.53;7.10;;;4.70;90.80;;;;;;5058552;28;20473;-73
2022/01/20 01:22:23;;;;;;;37.70;6.80;;;4.60;89.40;;;;;;5052870;28;20509;-74
2022/01/20 01:24:54;;;;;;;42.70;7.47;;;4.60;89.20;;;;;;5052165;28;20886;-74
2022/01/20 01:27:22;;;;;;;39.50;6.80;;;4.60;90.20;;;;;;5033830;28;20955;-75
2022/01/20 01:30:06;;;;;;;50.00;6.20;;;4.70;89.80;;;;;;5051826;28;20436;-75
2022/01/20 01:32:47;;;;;;;48.03;8.38;;;4.80;88.90;;;;;;5052757;28;20447;-76
2022/01/20 01:35:14;;;;;;;35.67;6.30;;;4.80;86.70;;;;;;5053502;28;20398;-73
2022/01/20 01:40:08;;;;;;;39.10;7.53;;;4.90;83.70;;;;;;5052854;28;20767;-74
2022/01/20 01:42:41;;;;;;;41.05;6.40;;;4.90;84.60;;;;;;5053241;28;20393;-73
2022/01/20 01:45:08;;;;;;;39.65;7.03;;;5.00;82.80;;;;;;5053197;28;20488;-75
2022/01/20 01:47:34;;;;;;;41.38;7.22;;;5.00;82.70;;;;;;5037028;28;20389;-74
2022/01/20 01:50:00;;;;;;;30.63;6.95;;;5.00;82.70;;;;;;5056402;28;20397;-74
2022/01/20 01:52:25;;;;;;;35.87;6.07;;;5.10;80.10;;;;;;5036805;28;20451;-73
2022/01/20 01:54:51;;;;;;;40.87;7.07;;;5.20;79.40;;;;;;5037602;28;20412;-73
2022/01/20 01:57:16;;;;;;;39.50;5.80;;;5.20;78.60;;;;;;5052723;28;20813;-74
2022/01/20 01:59:42;;;;;;;44.65;6.80;;;5.20;79.30;;;;;;5056880;28;20389;-75
2022/01/20 02:02:08;;;;;;;31.65;5.55;;;5.10;81.10;;;;;;5061785;28;20775;-74
2022/01/20 02:04:34;;;;;;;33.67;6.00;;;5.20;82.10;;;;;;5066056;28;20388;-73
2022/01/20 02:18:12;;;;;;;28.15;5.20;;;5.30;74.90;;;;;;5056470;28;20400;-75
2022/01/20 02:20:38;;;;;;;38.30;6.05;;;5.30;74.30;;;;;;5057731;28;20897;-74
2022/01/20 02:23:03;;;;;;;27.73;5.78;;;5.20;75.70;;;;;;5058381;28;20402;-75
2022/01/20 02:25:31;;;;;;;27.73;5.70;;;5.10;76.50;;;;;;5048735;28;20393;-75
2022/01/20 02:27:59;;;;;;;26.13;5.25;;;5.10;77.40;;;;;;5057868;28;20385;-76
2022/01/20 02:30:27;;;;;;;30.50;5.40;;;5.00;77.90;;;;;;5056184;28;20869;-74
2022/01/20 02:32:56;;;;;;;39.92;6.03;;;4.90;79.70;;;;;;5056490;28;20397;-74
2022/01/20 02:35:23;;;;;;;42.92;5.60;;;4.90;79.20;;;;;;5057542;28;20378;-72
2022/01/20 02:37:55;;;;;;;25.75;5.30;;;4.90;80.20;;;;;;5054768;28;20384;-72
2022/01/20 02:44:47;;;;;;;40.28;6.60;;;4.90;78.70;;;;;;5055792;28;20478;-71
2022/01/20 02:45:55;;;;;;;34.45;6.20;;;4.80;80.10;;;;;;5054981;28;20396;-70
2022/01/20 02:48:21;;;;;;;31.20;6.00;;;4.70;81.50;;;;;;5060050;28;20385;-71
2022/01/20 02:50:47;;;;;;;27.83;6.00;;;4.70;81.50;;;;;;5048428;28;20430;-71
2022/01/20 02:53:12;;;;;;;25.50;5.38;;;4.70;82.40;;;;;;5054216;28;20416;-71
2022/01/20 02:55:38;;;;;;;31.90;5.73;;;4.70;82.50;;;;;;5054325;28;20867;-70
2022/01/20 02:58:04;;;;;;;23.17;5.00;;;4.80;80.50;;;;;;5053992;28;20731;-70
2022/01/20 03:00:31;;;;;;;23.50;5.05;;;4.90;79.50;;;;;;5036383;28;20732;-71
2022/01/20 03:02:57;;;;;;;30.57;5.10;;;4.80;79.80;;;;;;5053557;28;20593;-71
2022/01/20 03:05:22;;;;;;;34.00;5.43;;;4.80;80.30;;;;;;5053958;28;20400;-72
2022/01/20 03:07:48;;;;;;;24.30;4.70;;;4.90;77.60;;;;;;5053016;28;20906;-71
2022/01/20 03:10:14;;;;;;;29.15;5.80;;;5.00;77.90;;;;;;5052096;28;20396;-72
2022/01/20 03:12:40;;;;;;;24.73;5.63;;;5.00;76.90;;;;;;5052349;28;20797;-72
2022/01/20 03:15:06;;;;;;;27.48;4.50;;;4.90;76.90;;;;;;5034601;28;20385;-71
2022/01/20 03:17:32;;;;;;;22.48;4.22;;;4.90;76.70;;;;;;5052691;28;20480;-72
2022/01/20 03:19:59;;;;;;;25.58;5.00;;;4.80;78.20;;;;;;5054254;28;20386;-72
2022/01/20 03:22:25;;;;;;;29.98;4.70;;;4.70;78.60;;;;;;5053793;28;20381;-71
2022/01/20 03:24:51;;;;;;;23.97;3.43;;;4.70;80.60;;;;;;5053218;28;20879;-72
2022/01/20 03:27:17;;;;;;;28.95;4.30;;;4.60;79.60;;;;;;5053290;28;20402;-69
2022/01/20 03:29:43;;;;;;;20.60;3.80;;;4.60;79.70;;;;;;5060699;28;20472;-70
2022/01/20 03:32:08;;;;;;;22.35;4.35;;;4.70;78.90;;;;;;5053340;28;20779;-71
2022/01/20 03:34:34;;;;;;;23.77;3.87;;;4.80;77.20;;;;;;5053923;28;20567;-73
2022/01/20 03:37:03;;;;;;;32.20;4.20;;;4.80;76.00;;;;;;5053142;28;20868;-70
2022/01/20 03:39:29;;;;;;;26.90;4.65;;;4.90;77.30;;;;;;5053666;28;20377;-70
2022/01/20 03:41:55;;;;;;;29.90;4.78;;;5.00;74.60;;;;;;5053331;28;20389;-71
2022/01/20 03:44:21;;;;;;;27.33;4.03;;;5.10;74.40;;;;;;5053634;28;20767;-71
2022/01/20 03:46:46;;;;;;;33.17;3.77;;;5.00;73.30;;;;;;5052855;28;20405;-70
2022/01/20 03:49:27;;;;;;;15.27;3.70;;;5.00;73.40;;;;;;5053037;28;20394;-70
2022/01/20 03:51:54;;;;;;;21.02;3.75;;;5.00;74.00;;;;;;5053034;28;20900;-70
2022/01/20 03:54:20;;;;;;;27.42;4.97;;;5.00;73.20;;;;;;5052892;28;20498;-70
2022/01/20 03:56:45;;;;;;;30.65;4.28;;;5.00;73.70;;;;;;5053044;28;20745;-71
2022/01/20 03:59:11;;;;;;;22.63;3.60;;;5.10;72.50;;;;;;5053060;28;20377;-71
2022/01/20 04:01:37;;;;;;;18.27;3.77;;;5.20;72.40;;;;;;5053223;28;20389;-71
2022/01/20 04:04:02;;;;;;;28.20;4.47;;;5.10;72.40;;;;;;5052962;28;20404;-72
2022/01/20 04:06:28;;;;;;;19.83;3.90;;;5.00;73.50;;;;;;5054098;28;20405;-72
2022/01/20 04:08:54;;;;;;;27.65;4.25;;;5.00;75.10;;;;;;5057702;28;20896;-71
2022/01/20 04:11:28;;;;;;;20.63;3.70;;;5.10;72.50;;;;;;5056290;28;20420;-71
2022/01/20 04:13:54;;;;;;;18.23;3.70;;;5.10;72.40;;;;;;5055951;28;20413;-71
2022/01/20 04:16:37;;;;;;;16.85;3.90;;;5.20;71.20;;;;;;5059979;28;20763;-72
2022/01/20 04:19:07;;;;;;;8.73;2.20;;;5.30;68.80;;;;;;5054249;28;20385;-71
2022/01/20 04:21:33;;;;;;;8.33;2.17;;;5.30;68.00;;;;;;5053068;28;20401;-71
2022/01/20 04:24:00;;;;;;;16.45;3.67;;;5.20;69.50;;;;;;5053001;28;20396;-72
2022/01/20 04:26:26;;;;;;;14.32;2.60;;;5.10;70.20;;;;;;5052079;28;20500;-72
2022/01/20 04:28:54;;;;;;;15.00;3.42;;;5.10;69.90;;;;;;5051392;28;20397;-72
2022/01/20 04:31:27;;;;;;;12.80;2.60;;;5.00;71.10;;;;;;5050631;28;20389;-72
2022/01/20 04:33:56;;;;;;;14.50;3.10;;;5.00;72.00;;;;;;5050785;28;20397;-70
2022/01/20 04:36:22;;;;;;;9.80;2.35;;;5.00;73.20;;;;;;5051239;28;20453;-71
2022/01/20 04:38:47;;;;;;;13.03;2.70;;;5.00;72.90;;;;;;5057470;28;20413;-71
2022/01/20 04:41:13;;;;;;;14.40;3.15;;;5.00;72.70;;;;;;5059484;28;20480;-70
2022/01/20 04:43:38;;;;;;;14.98;2.97;;;5.00;73.80;;;;;;5051927;28;20404;-70
2022/01/20 04:48:49;;;;;;;22.42;4.07;;;4.90;76.50;;;;;;5052353;28;20463;-70
2022/01/20 04:59:27;;;;;;;17.10;3.45;;;5.20;73.40;;;;;;5054757;28;20485;-72
2022/01/20 05:01:53;;;;;;;20.80;3.37;;;5.20;72.10;;;;;;5051033;28;20513;-72
2022/01/20 05:04:19;;;;;;;16.80;3.28;;;5.20;73.70;;;;;;5051910;28;20389;-72
2022/01/20 05:06:46;;;;;;;19.83;4.15;;;5.20;73.90;;;;;;5051403;28;20481;-72
2022/01/20 05:09:18;;;;;;;21.23;3.60;;;5.40;71.40;;;;;;5064465;28;20524;-71
2022/01/20 05:11:49;;;;;;;15.85;4.05;;;5.50;68.70;;;;;;5067045;28;20460;-73
2022/01/20 05:14:14;;;;;;;26.08;4.20;;;5.40;68.30;;;;;;5065565;28;20412;-72
2022/01/20 05:16:40;;;;;;;23.17;5.70;;;5.40;71.00;;;;;;5052211;28;20394;-73
2022/01/20 05:19:06;;;;;;;24.73;4.40;;;5.30;73.90;;;;;;5051683;28;20377;-72
2022/01/20 05:21:31;;;;;;;13.73;3.53;;;5.30;72.10;;;;;;5051857;28;20417;-71
2022/01/20 05:23:57;;;;;;;17.40;3.93;;;5.30;72.90;;;;;;5051484;28;20389;-72
2022/01/20 05:26:22;;;;;;;18.30;4.03;;;5.30;71.40;;;;;;5050963;28;20889;-71
2022/01/20 05:28:48;;;;;;;18.30;3.90;;;5.30;71.60;;;;;;5051121;28;20394;-73
2022/01/20 05:31:13;;;;;;;17.77;3.00;;;5.20;74.40;;;;;;5050955;28;20385;-72
2022/01/20 05:33:39;;;;;;;25.27;4.03;;;5.20;72.60;;;;;;5051298;28;20878;-73
2022/01/20 05:36:05;;;;;;;20.98;4.25;;;5.10;74.70;;;;;;5051300;28;20750;-73
2022/01/20 05:38:30;;;;;;;9.17;3.03;;;5.10;75.40;;;;;;5050796;28;20400;-71
2022/01/20 05:40:56;;;;;;;10.27;1.80;;;5.10;73.70;;;;;;5050860;28;20870;-73
2022/01/20 05:43:22;;;;;;;13.73;3.20;;;4.90;80.70;;;;;;5051428;28;20385;-71
2022/01/20 05:45:48;;;;;;;16.67;3.50;;;4.70;90.30;;;;;;5051255;28;20398;-70
2022/01/20 05:48:17;;;;;;;15.67;3.00;;;4.70;97.40;;;;;;5049880;28;20401;-72
2022/01/20 05:50:44;;;;;;;12.37;2.20;;;4.60;96.10;;;;;;5051800;28;20865;-70
2022/01/20 05:53:10;;;;;;;12.18;2.45;;;4.60;96.00;;;;;;5051675;28;20801;-72
2022/01/20 05:55:36;;;;;;;10.15;2.72;;;4.50;95.60;;;;;;5053048;28;20747;-71
2022/01/20 05:58:05;;;;;;;16.35;3.00;;;4.50;92.20;;;;;;5036905;28;20385;-70
2022/01/20 06:00:31;;;;;;;20.23;4.18;;;4.50;92.80;;;;;;5046346;28;20480;-71
2022/01/20 06:05:41;;;;;;;13.87;3.67;;;4.40;85.30;;;;;;5053083;28;20439;-71
2022/01/20 06:08:08;;;;;;;18.85;4.28;;;4.50;84.10;;;;;;5051769;28;20397;-71
2022/01/20 06:10:33;;;;;;;15.93;3.92;;;4.50;86.60;;;;;;5051180;28;20389;-71
2022/01/20 06:12:59;;;;;;;12.97;3.20;;;4.50;86.10;;;;;;5051950;28;20485;-73
2022/01/20 06:15:25;;;;;;;15.02;3.45;;;4.50;82.70;;;;;;5051380;28;20389;-72
2022/01/20 06:17:51;;;;;;;14.15;3.83;;;4.50;82.30;;;;;;5050548;28;20378;-72
2022/01/20 06:20:16;;;;;;;10.23;2.50;;;4.50;80.00;;;;;;5052333;28;20472;-71
2022/01/20 06:22:42;;;;;;;20.08;3.00;;;4.50;77.30;;;;;;5057165;28;20838;-71
2022/01/20 06:25:08;;;;;;;17.60;3.20;;;4.50;77.40;;;;;;5039022;28;20500;-71
2022/01/20 06:27:34;;;;;;;19.52;3.10;;;4.40;76.90;;;;;;5050818;28;20428;-71
2022/01/20 06:30:00;;;;;;;23.02;4.32;;;4.40;75.00;;;;;;5063829;28;20509;-71
2022/01/20 06:32:27;;;;;;;11.57;2.73;;;4.50;76.00;;;;;;5070833;28;20749;-71
2022/01/20 06:34:52;;;;;;;12.70;2.47;;;4.50;73.20;;;;;;5050976;28;20551;-71
2022/01/20 06:37:18;;;;;;;14.70;2.67;;;4.50;72.70;;;;;;5051092;28;21141;-72
2022/01/20 06:39:43;;;;;;;18.92;3.50;;;4.50;72.20;;;;;;5054681;28;20385;-70
2022/01/20 06:42:09;;;;;;;16.55;3.60;;;4.50;73.00;;;;;;5051113;28;20385;-72
2022/01/20 06:44:34;;;;;;;11.60;2.77;;;4.60;73.50;;;;;;5050879;28;20779;-73
2022/01/20 06:47:00;;;;;;;35.00;3.47;;;4.60;72.70;;;;;;5051166;28;20459;-71
2022/01/20 06:49:26;;;;;;;18.13;3.67;;;4.50;72.90;;;;;;5051095;28;20427;-71
2022/01/20 06:51:52;;;;;;;16.58;3.85;;;4.50;74.00;;;;;;5050953;28;20385;-70
2022/01/20 06:54:18;;;;;;;18.50;3.75;;;4.50;75.20;;;;;;5050601;28;20924;-71
2022/01/20 06:56:43;;;;;;;21.52;3.50;;;4.50;75.10;;;;;;5050788;28;20389;-71
2022/01/20 06:59:14;;;;;;;5.30;2.03;;;4.50;75.40;;;;;;5051866;28;21116;-71
2022/01/20 07:01:41;;;;;;;8.40;2.35;;;4.50;73.40;;;;;;5055520;28;20373;-72
2022/01/20 07:04:09;;;;;;;11.70;2.73;;;4.50;71.90;;;;;;5055530;28;20778;-71
2022/01/20 07:06:35;;;;;;;10.32;2.22;;;4.50;72.90;;;;;;5057204;28;20393;-71
2022/01/20 07:09:00;;;;;;;13.70;3.10;;;4.50;70.40;;;;;;5057883;28;20398;-70
2022/01/20 07:11:26;;;;;;;12.43;2.67;;;4.50;67.30;;;;;;5058660;28;20397;-71
2022/01/20 07:13:52;;;;;;;19.03;3.17;;;4.60;65.90;;;;;;5058052;28;20400;-71
2022/01/20 07:16:17;;;;;;;19.75;3.50;;;4.60;65.20;;;;;;5039658;28;20388;-70
2022/01/20 07:18:43;;;;;;;17.73;3.38;;;4.60;62.10;;;;;;5055179;28;20420;-73
2022/01/20 07:21:09;;;;;;;10.30;3.00;;;4.60;58.10;;;;;;5056089;28;20394;-72
2022/01/20 07:23:34;;;;;;;21.57;3.50;;;4.70;56.70;;;;;;5059020;28;20396;-70
2022/01/20 07:26:00;;;;;;;15.40;2.93;;;4.70;57.20;;;;;;5057615;28;20910;-71
2022/01/20 07:28:25;;;;;;;19.80;4.15;;;4.70;55.50;;;;;;5056592;28;20389;-71
2022/01/20 07:30:51;;;;;;;20.15;3.30;;;4.70;54.90;;;;;;5072110;28;20457;-72
2022/01/20 07:33:19;;;;;;;15.57;3.00;;;4.70;54.30;;;;;;5067407;28;20401;-70
2022/01/20 07:35:45;;;;;;;29.38;4.03;;;4.70;53.30;;;;;;5054903;28;20409;-72
2022/01/20 07:38:11;;;;;;;18.13;3.67;;;4.80;52.90;;;;;;5053780;28;20900;-70
2022/01/20 07:40:36;;;;;;;16.63;2.90;;;4.80;52.40;;;;;;5054153;28;20464;-71
2022/01/20 07:43:03;;;;;;;15.57;3.50;;;4.80;51.40;;;;;;5035815;28;20389;-71
2022/01/20 07:45:30;;;;;;;11.63;3.00;;;4.80;50.30;;;;;;5057615;28;20515;-73
2022/01/20 07:47:56;;;;;;;22.08;4.00;;;4.80;49.70;;;;;;5053544;28;20409;-72
2022/01/20 07:50:21;;;;;;;14.73;4.47;;;4.80;50.90;;;;;;5054200;28;20417;-72
2022/01/20 07:52:47;;;;;;;25.20;4.50;;;4.70;50.40;;;;;;5054500;28;20394;-73
2022/01/20 07:55:14;;;;;;;18.17;3.83;;;4.70;50.30;;;;;;5052902;28;20401;-73
2022/01/20 07:57:39;;;;;;;24.75;4.07;;;4.60;49.60;;;;;;5052153;28;20397;-74
2022/01/20 08:00:07;;;;;;;15.55;3.60;;;4.60;51.10;;;;;;5054544;28;20455;-74
2022/01/20 08:02:33;;;;;;;19.07;3.17;;;4.60;49.80;;;;;;5054924;28;20819;-74
2022/01/20 08:04:59;;;;;;;18.63;4.63;;;4.60;49.30;;;;;;5055209;28;20464;-73
2022/01/20 08:07:25;;;;;;;29.20;5.10;;;4.70;48.10;;;;;;5036977;28;20758;-74
2022/01/20 08:09:57;;;;;;;23.73;4.20;;;4.60;46.90;;;;;;5054027;28;20405;-73
2022/01/20 08:12:26;;;;;;;23.38;5.18;;;4.60;46.10;;;;;;5057312;28;20397;-73
2022/01/20 08:14:53;;;;;;;25.50;4.55;;;4.70;44.70;;;;;;5040595;28;20416;-73
2022/01/20 08:17:19;;;;;;;25.48;4.85;;;4.80;42.80;;;;;;5037851;28;20390;-74
2022/01/20 08:19:45;;;;;;;25.27;6.30;;;4.90;42.80;;;;;;5053631;28;20908;-74
2022/01/20 08:22:10;;;;;;;23.70;6.28;;;5.00;42.20;;;;;;5056298;28;20404;-76
2022/01/20 08:24:36;;;;;;;20.67;5.38;;;5.00;42.00;;;;;;5035803;28;20475;-73
2022/01/20 08:27:02;;;;;;;21.73;3.75;;;5.00;42.00;;;;;;5053213;28;20480;-75
2022/01/20 08:29:28;;;;;;;23.08;2.97;;;5.00;41.10;;;;;;5060113;28;20402;-74
2022/01/20 08:31:54;;;;;;;17.35;3.97;;;5.00;41.70;;;;;;5069541;28;20430;-74
2022/01/20 08:34:19;;;;;;;19.37;3.00;;;5.20;41.90;;;;;;5056928;28;20920;-72
2022/01/20 08:36:45;;;;;;;13.70;3.20;;;5.10;42.40;;;;;;5047093;28;20420;-73
2022/01/20 08:41:55;;;;;;;19.98;3.75;;;5.20;45.30;;;;;;5050101;28;20397;-73
2022/01/20 08:44:21;;;;;;;16.63;2.97;;;4.90;48.40;;;;;;5051924;28;20413;-72
2022/01/20 08:46:47;;;;;;;16.92;3.25;;;4.80;46.50;;;;;;5052726;28;20770;-74
2022/01/20 08:49:12;;;;;;;13.50;2.90;;;4.80;46.80;;;;;;5054025;28;20394;-75
2022/01/20 08:51:40;;;;;;;13.55;2.60;;;4.80;46.10;;;;;;5061872;28;20445;-73
2022/01/20 08:54:05;;;;;;;18.83;2.40;;;4.90;44.30;;;;;;5066307;28;20535;-73
2022/01/20 08:56:34;;;;;;;13.65;2.45;;;4.90;41.80;;;;;;5055657;28;20423;-74
2022/01/20 08:59:00;;;;;;;9.25;2.40;;;5.00;41.50;;;;;;5037118;28;20419;-75
2022/01/20 09:01:26;;;;;;;11.70;2.90;;;5.00;41.80;;;;;;5054345;28;20395;-72
2022/01/20 09:03:51;;;;;;;6.85;1.42;;;4.90;40.50;;;;;;5053705;28;20578;-73
2022/01/20 09:06:17;;;;;;;12.20;2.40;;;4.90;39.60;;;;;;5052996;28;20961;-73
2022/01/20 09:08:43;;;;;;;9.40;2.43;;;5.00;40.20;;;;;;5050713;28;20468;-73
2022/01/20 09:11:18;;;;;;;18.50;2.97;;;5.10;39.60;;;;;;5027141;28;20442;-72
2022/01/20 09:16:28;;;;;;;12.00;2.60;;;5.30;37.10;;;;;;5052759;28;20392;-73
2022/01/20 09:18:54;;;;;;;15.32;2.97;;;5.40;37.10;;;;;;5053168;28;20906;-73
2022/01/20 09:21:22;;;;;;;13.87;2.67;;;5.40;37.50;;;;;;5052246;28;20764;-73
2022/01/20 09:23:48;;;;;;;7.25;1.65;;;5.60;37.30;;;;;;5049432;28;20401;-73
2022/01/20 09:26:14;;;;;;;8.80;1.90;;;5.60;36.10;;;;;;5051782;28;20563;-75
2022/01/20 09:28:39;;;;;;;10.25;2.00;;;5.50;34.60;;;;;;5052027;28;20729;-74
2022/01/20 09:31:06;;;;;;;9.02;2.25;;;5.50;34.80;;;;;;5051121;28;20484;-75
2022/01/20 09:33:32;;;;;;;13.48;3.40;;;5.30;35.60;;;;;;5058890;28;20409;-73
2022/01/20 09:35:58;;;;;;;8.90;2.20;;;5.40;36.10;;;;;;5064189;28;20872;-74
2022/01/20 09:38:25;;;;;;;12.25;2.40;;;5.30;35.90;;;;;;5063412;28;20395;-73
2022/01/20 09:40:50;;;;;;;9.95;2.50;;;5.40;36.10;;;;;;5053809;28;20402;-74
2022/01/20 09:43:17;;;;;;;6.53;1.50;;;5.30;36.20;;;;;;5051741;28;20397;-75
2022/01/20 09:45:54;;;;;;;11.82;2.65;;;5.10;37.30;;;;;;5051073;28;20436;-75
2022/01/20 09:48:22;;;;;;;11.40;2.03;;;5.00;37.50;;;;;;5051474;28;20515;-72
2022/01/20 09:50:49;;;;;;;7.90;1.80;;;5.00;37.20;;;;;;5063348;28;20424;-73
2022/01/20 09:53:15;;;;;;;5.60;1.83;;;4.90;37.80;;;;;;5050721;28;20487;-74
2022/01/20 09:55:41;;;;;;;10.27;2.10;;;4.80;38.00;;;;;;5069145;28;20386;-72
2022/01/20 09:58:11;;;;;;;12.13;2.40;;;4.90;38.40;;;;;;5058108;28;20938;-72
2022/01/20 10:00:38;;;;;;;9.70;2.17;;;4.90;37.50;;;;;;5051079;28;20518;-72
2022/01/20 10:03:08;;;;;;;13.48;2.60;;;5.10;39.70;;;;;;5034356;28;20814;-74
2022/01/20 10:05:37;;;;;;;8.38;2.00;;;5.20;37.20;;;;;;5051614;28;20423;-73
2022/01/20 10:08:13;;;;;;;7.15;1.80;;;5.30;37.40;;;;;;5055324;28;20404;-75
2022/01/20 10:10:42;;;;;;;7.45;2.05;;;5.30;36.50;;;;;;5058043;28;20393;-75
2022/01/20 10:13:09;;;;;;;13.40;2.20;;;5.40;37.10;;;;;;5061974;28;20396;-75
2022/01/20 10:15:36;;;;;;;16.07;2.53;;;5.50;36.00;;;;;;5053559;28;20448;-75
2022/01/20 10:18:10;;;;;;;7.93;2.03;;;5.40;36.30;;;;;;5063713;28;20496;-75
2022/01/20 10:20:48;;;;;;;10.48;1.73;;;5.20;37.20;;;;;;5063036;28;20884;-75
2022/01/20 10:23:14;;;;;;;9.77;1.77;;;5.20;38.10;;;;;;5056131;28;20400;-74
2022/01/20 10:25:41;;;;;;;22.67;3.13;;;5.10;38.50;;;;;;5054922;28;20393;-74
2022/01/20 10:28:08;;;;;;;11.52;2.70;;;5.00;40.30;;;;;;5054462;28;20396;-72
2022/01/20 10:30:34;;;;;;;15.07;2.92;;;5.00;41.40;;;;;;5065514;28;20431;-73
2022/01/20 10:33:01;;;;;;;8.15;1.90;;;5.10;39.70;;;;;;5052422;28;20447;-73
2022/01/20 10:35:36;;;;;;;9.30;1.98;;;5.30;38.90;;;;;;5040018;28;20432;-73
2022/01/20 10:38:14;;;;;;;4.97;1.80;;;5.30;38.50;;;;;;5067660;28;20735;-72
2022/01/20 10:40:46;;;;;;;10.93;2.03;;;5.30;37.50;;;;;;5064244;28;20392;-74
2022/01/20 10:43:22;;;;;;;12.20;2.90;;;5.30;37.70;;;;;;5061315;28;20389;-74
2022/01/20 10:45:48;;;;;;;9.93;2.38;;;5.30;37.70;;;;;;5061594;28;20455;-74
2022/01/20 10:48:19;;;;;;;9.07;1.90;;;5.20;36.80;;;;;;5060884;28;20805;-74
2022/01/20 10:50:45;;;;;;;11.18;2.60;;;5.20;37.20;;;;;;5062229;28;20397;-75
2022/01/20 10:53:21;;;;;;;20.90;2.60;;;5.30;36.60;;;;;;5060648;28;20405;-74
2022/01/20 10:55:46;;;;;;;9.50;1.63;;;5.40;36.30;;;;;;5046344;28;20405;-73
2022/01/20 10:58:17;;;;;;;6.67;1.87;;;5.30;36.20;;;;;;5065450;28;20385;-74
2022/01/20 11:00:48;;;;;;;10.18;2.50;;;5.40;36.50;;;;;;5067745;28;20396;-73
2022/01/20 11:03:14;;;;;;;16.30;2.40;;;5.30;36.10;;;;;;5066352;28;20395;-74
2022/01/20 11:05:41;;;;;;;7.57;1.67;;;5.10;36.80;;;;;;5066943;28;20433;-73
2022/01/20 11:08:08;;;;;;;9.52;1.70;;;5.00;35.80;;;;;;5065625;28;20398;-72
2022/01/20 11:10:33;;;;;;;8.82;1.52;;;5.00;36.80;;;;;;5056604;28;20413;-74
2022/01/20 11:12:59;;;;;;;12.60;2.08;;;5.00;36.80;;;;;;5064405;28;20404;-74
2022/01/20 11:15:28;;;;;;;8.52;1.70;;;5.10;37.70;;;;;;5049370;28;20402;-72
2022/01/20 11:17:56;;;;;;;16.73;1.75;;;5.20;35.80;;;;;;5074031;28;20375;-75
2022/01/20 11:20:25;;;;;;;8.98;2.25;;;5.20;35.80;;;;;;5063526;28;20381;-73
2022/01/20 11:22:59;;;;;;;9.50;1.90;;;5.20;36.40;;;;;;5054268;28;20940;-74
2022/01/20 11:25:28;;;;;;;11.43;2.28;;;5.10;36.00;;;;;;5052040;28;20405;-74
2022/01/20 11:28:21;;;;;;;13.95;3.33;;;5.20;37.00;;;;;;5064054;28;20775;-75
2022/01/20 11:31:00;;;;;;;9.10;2.10;;;5.20;35.10;;;;;;5061043;28;20911;-74
2022/01/20 11:33:34;;;;;;;4.43;1.90;;;5.10;35.90;;;;;;5053039;28;20397;-74
2022/01/20 11:36:00;;;;;;;6.90;1.50;;;5.00;35.60;;;;;;5035344;28;20405;-74
2022/01/20 11:38:46;;;;;;;7.70;1.85;;;5.00;36.40;;;;;;5053906;28;20393;-72
2022/01/20 11:41:14;;;;;;;11.82;1.48;;;5.20;35.80;;;;;;5052111;28;20400;-72
2022/01/20 11:43:49;;;;;;;44.42;3.67;;;5.20;35.30;;;;;;5035960;28;20417;-74
2022/01/20 11:46:19;;;;;;;17.58;2.28;;;5.30;35.10;;;;;;5052281;28;20845;-75
2022/01/20 11:49:01;;;;;;;31.77;4.07;;;5.20;35.70;;;;;;5053403;28;20477;-72
2022/01/20 11:51:40;;;;;;;9.32;2.10;;;5.30;35.60;;;;;;5054131;28;20456;-72
2022/01/20 11:54:07;;;;;;;7.60;1.90;;;5.20;34.70;;;;;;5053199;28;20910;-73
2022/01/20 11:56:39;;;;;;;8.10;2.15;;;5.00;35.20;;;;;;5054131;28;20389;-73
2022/01/20 11:59:07;;;;;;;16.30;2.90;;;5.00;35.90;;;;;;5036611;28;20428;-72
2022/01/20 12:01:52;;;;;;;7.10;2.42;;;5.10;36.00;;;;;;5052548;28;20409;-72
2022/01/20 12:04:39;;;;;;;18.10;3.28;;;5.30;36.50;;;;;;5050977;28;20411;-72
2022/01/20 12:07:06;;;;;;;10.43;2.13;;;5.50;36.30;;;;;;5054744;28;20389;-72
2022/01/20 12:09:35;;;;;;;9.30;2.00;;;5.60;35.70;;;;;;5035595;28;20859;-73
2022/01/20 12:12:07;;;;;;;17.35;2.40;;;5.50;36.30;;;;;;5035075;28;20409;-72
2022/01/20 12:14:38;;;;;;;9.30;2.15;;;5.50;36.20;;;;;;5049839;28;20401;-74
2022/01/20 12:17:14;;;;;;;7.50;2.35;;;5.40;36.20;;;;;;5053199;28;20386;-73
2022/01/20 12:19:41;;;;;;;10.02;1.80;;;5.50;35.40;;;;;;5052865;28;20389;-73
2022/01/20 12:22:07;;;;;;;4.30;1.20;;;5.40;34.90;;;;;;5051536;28;20444;-74
2022/01/20 12:24:35;;;;;;;15.55;2.80;;;5.40;35.70;;;;;;5033271;28;20436;-73
2022/01/20 12:27:01;;;;;;;12.77;3.30;;;5.50;36.70;;;;;;5050779;28;20413;-73
2022/01/20 12:29:35;;;;;;;11.02;2.20;;;5.90;34.90;;;;;;5038670;28;20390;-75
2022/01/20 12:32:01;;;;;;;8.55;2.20;;;5.90;34.00;;;;;;5056982;28;20719;-75
2022/01/20 12:34:27;;;;;;;8.83;1.13;;;6.00;33.80;;;;;;5049717;28;20409;-74
2022/01/20 12:36:57;;;;;;;11.32;2.50;;;5.70;34.40;;;;;;5054705;28;20473;-76
2022/01/20 12:39:25;;;;;;;12.95;2.22;;;5.50;35.10;;;;;;5034101;28;20414;-75
2022/01/20 12:41:56;;;;;;;13.40;2.87;;;5.60;35.10;;;;;;5036221;28;20882;-76
2022/01/20 12:44:22;;;;;;;15.70;2.17;;;5.70;34.60;;;;;;5033767;28;20496;-75
2022/01/20 12:46:48;;;;;;;15.00;2.90;;;5.60;34.90;;;;;;5052480;28;20443;-75
2022/01/20 12:49:16;;;;;;;23.02;3.33;;;5.70;35.50;;;;;;5056778;28;20405;-75
2022/01/20 12:51:54;;;;;;;20.17;3.90;;;5.70;36.20;;;;;;5054624;28;20562;-75
2022/01/20 12:54:32;;;;;;;18.00;3.30;;;5.90;35.90;;;;;;5060425;28;20531;-75
2022/01/20 12:57:00;;;;;;;6.60;1.60;;;5.90;34.70;;;;;;5057308;28;20403;-74
2022/01/20 12:59:38;;;;;;;13.45;2.20;;;5.70;33.90;;;;;;5053835;28;20400;-74
2022/01/20 13:02:11;;;;;;;6.78;2.13;;;5.50;35.70;;;;;;5036481;28;20746;-75
2022/01/20 13:04:38;;;;;;;8.45;1.88;;;5.40;35.30;;;;;;5052973;28;20405;-76
2022/01/20 13:07:05;;;;;;;14.30;2.20;;;5.40;36.20;;;;;;5054309;28;20404;-75
2022/01/20 13:09:41;;;;;;;6.75;1.80;;;5.50;35.80;;;;;;5038149;28;20473;-74
2022/01/20 13:12:07;;;;;;;12.40;2.40;;;5.50;34.20;;;;;;5059669;28;20390;-75
2022/01/20 13:14:34;;;;;;;5.55;1.70;;;5.40;37.70;;;;;;5059271;28;20414;-74
2022/01/20 13:17:01;;;;;;;5.90;2.00;;;4.70;51.80;;;;;;5055444;28;20482;-75
2022/01/20 13:19:39;;;;;;;3.50;2.28;;;3.70;62.50;;;;;;5037738;28;20393;-75
2022/01/20 13:22:17;;;;;;;8.07;2.72;;;3.40;74.60;;;;;;5067173;28;20389;-74
2022/01/20 13:24:43;;;;;;;4.32;2.53;;;3.40;78.80;;;;;;5042673;28;20389;-74
2022/01/20 13:27:12;;;;;;;8.80;2.72;;;3.40;80.10;;;;;;5034272;28;20385;-74
2022/01/20 13:29:41;;;;;;;7.60;2.60;;;3.50;79.90;;;;;;5060414;28;20478;-74
2022/01/20 13:32:07;;;;;;;11.25;2.55;;;3.60;79.50;;;;;;5045380;28;20885;-75
2022/01/20 13:34:32;;;;;;;5.25;2.22;;;3.50;77.30;;;;;;5050923;28;20416;-74
2022/01/20 13:37:02;;;;;;;7.40;3.10;;;3.50;77.00;;;;;;5049304;28;21113;-74
2022/01/20 13:39:40;;;;;;;6.15;2.58;;;3.50;80.30;;;;;;5050954;28;20389;-73
2022/01/20 13:45:17;;;;;;;7.82;2.50;;;3.90;76.50;;;;;;5052189;28;20398;-76
2022/01/20 13:47:48;;;;;;;8.70;2.28;;;4.10;75.80;;;;;;5050815;28;20477;-75
2022/01/20 13:50:19;;;;;;;4.10;2.60;;;4.30;69.00;;;;;;5053142;28;20389;-75
2022/01/20 13:52:45;;;;;;;4.70;1.80;;;4.10;62.40;;;;;;5033595;28;20415;-75
2022/01/20 13:55:29;;;;;;;8.50;2.10;;;4.10;59.80;;;;;;5033101;28;20901;-76
2022/01/20 13:57:57;;;;;;;14.57;1.63;;;4.10;62.00;;;;;;5033294;28;20428;-75
2022/01/20 14:00:25;;;;;;;12.40;1.60;;;4.30;58.20;;;;;;5032472;28;20491;-76